sensor_id;sensor_type;location;lat;lon;timestamp;pressure;altitude;pressure_sealevel;temperature;humidity
57250;BME280;43102;52.014;-0.680;2023-09-12T00:00:00;100458;;;25.33;50.85
57250;BME280;43102;52.014;-0.680;2023-09-12T00:01:03;100458;;;25.33;50.85
57250;BME280;43102;52.014;-0.680;2023-09-12T00:02:00;100458;;;25.33;50.85
57250;BME280;43102;52.014;-0.680;2023-09-12T00:03:00;100455;;;25.31;50.84
57250;BME280;43102;52.014;-0.680;2023-09-12T00:04:00;100455;;;25.31;50.84
57250;BME280;43102;52.014;-0.680;2023-09-12T00:05:00;100455;;;25.31;50.84
57250;BME280;43102;52.014;-0.680;2023-09-12T00:06:00;100455;;;25.31;50.84
57250;BME280;43102;52.014;-0.680;2023-09-12T00:07:00;100455;;;25.31;50.84
57250;BME280;43102;52.014;-0.680;2023-09-12T00:08:00;100455;;;25.29;50.83
57250;BME280;43102;52.014;-0.680;2023-09-12T00:09:00;100455;;;25.29;50.83
57250;BME280;43102;52.014;-0.680;2023-09-12T00:10:00;100455;;;25.29;50.83
57250;BME280;43102;52.014;-0.680;2023-09-12T00:11:00;100455;;;25.29;50.83
57250;BME280;43102;52.014;-0.680;2023-09-12T00:12:00;100455;;;25.29;50.83
57250;BME280;43102;52.014;-0.680;2023-09-12T00:13:00;100450;;;25.25;50.98
57250;BME280;43102;52.014;-0.680;2023-09-12T00:14:00;100450;;;25.25;50.98
57250;BME280;43102;52.014;-0.680;2023-09-12T00:15:00;100450;;;25.25;50.98
57250;BME280;43102;52.014;-0.680;2023-09-12T00:16:00;100450;;;25.25;50.98
57250;BME280;43102;52.014;-0.680;2023-09-12T00:17:00;100450;;;25.25;50.98
57250;BME280;43102;52.014;-0.680;2023-09-12T00:18:00;100453;;;25.21;51.06
57250;BME280;43102;52.014;-0.680;2023-09-12T00:19:00;100453;;;25.21;51.06
57250;BME280;43102;52.014;-0.680;2023-09-12T00:20:00;100453;;;25.21;51.06
57250;BME280;43102;52.014;-0.680;2023-09-12T00:21:00;100453;;;25.21;51.06
57250;BME280;43102;52.014;-0.680;2023-09-12T00:22:00;100453;;;25.21;51.06
57250;BME280;43102;52.014;-0.680;2023-09-12T00:23:00;100443;;;25.20;51.18
57250;BME280;43102;52.014;-0.680;2023-09-12T00:24:00;100443;;;25.20;51.18
57250;BME280;43102;52.014;-0.680;2023-09-12T00:25:00;100443;;;25.20;51.18
57250;BME280;43102;52.014;-0.680;2023-09-12T00:26:00;100443;;;25.20;51.18
57250;BME280;43102;52.014;-0.680;2023-09-12T00:27:00;100443;;;25.20;51.18
57250;BME280;43102;52.014;-0.680;2023-09-12T00:28:00;100442;;;25.19;51.35
57250;BME280;43102;52.014;-0.680;2023-09-12T00:29:00;100442;;;25.19;51.35
57250;BME280;43102;52.014;-0.680;2023-09-12T00:30:00;100442;;;25.19;51.35
57250;BME280;43102;52.014;-0.680;2023-09-12T00:31:00;100442;;;25.19;51.35
57250;BME280;43102;52.014;-0.680;2023-09-12T00:32:00;100442;;;25.19;51.35
57250;BME280;43102;52.014;-0.680;2023-09-12T00:33:00;100438;;;25.16;51.30
57250;BME280;43102;52.014;-0.680;2023-09-12T00:34:00;100438;;;25.16;51.30
57250;BME280;43102;52.014;-0.680;2023-09-12T00:35:00;100438;;;25.16;51.30
57250;BME280;43102;52.014;-0.680;2023-09-12T00:36:00;100438;;;25.16;51.30
57250;BME280;43102;52.014;-0.680;2023-09-12T00:37:00;100438;;;25.16;51.30
57250;BME280;43102;52.014;-0.680;2023-09-12T00:38:00;100441;;;25.10;51.34
57250;BME280;43102;52.014;-0.680;2023-09-12T00:39:00;100441;;;25.10;51.34
57250;BME280;43102;52.014;-0.680;2023-09-12T00:40:00;100441;;;25.10;51.34
57250;BME280;43102;52.014;-0.680;2023-09-12T00:41:00;100441;;;25.10;51.34
57250;BME280;43102;52.014;-0.680;2023-09-12T00:42:00;100441;;;25.10;51.34
57250;BME280;43102;52.014;-0.680;2023-09-12T00:43:00;100444;;;25.10;51.40
57250;BME280;43102;52.014;-0.680;2023-09-12T00:44:00;100444;;;25.10;51.40
57250;BME280;43102;52.014;-0.680;2023-09-12T00:45:00;100444;;;25.10;51.40
57250;BME280;43102;52.014;-0.680;2023-09-12T00:46:00;100444;;;25.10;51.40
57250;BME280;43102;52.014;-0.680;2023-09-12T00:47:00;100444;;;25.10;51.40
57250;BME280;43102;52.014;-0.680;2023-09-12T00:48:00;100442;;;25.06;51.49
57250;BME280;43102;52.014;-0.680;2023-09-12T00:49:00;100442;;;25.06;51.49
57250;BME280;43102;52.014;-0.680;2023-09-12T00:50:00;100442;;;25.06;51.49
57250;BME280;43102;52.014;-0.680;2023-09-12T00:51:00;100442;;;25.06;51.49
57250;BME280;43102;52.014;-0.680;2023-09-12T00:52:00;100442;;;25.06;51.49
57250;BME280;43102;52.014;-0.680;2023-09-12T00:53:00;100438;;;25.08;51.52
57250;BME280;43102;52.014;-0.680;2023-09-12T00:54:00;100438;;;25.08;51.52
57250;BME280;43102;52.014;-0.680;2023-09-12T00:55:00;100438;;;25.08;51.52
57250;BME280;43102;52.014;-0.680;2023-09-12T00:56:00;100438;;;25.08;51.52
57250;BME280;43102;52.014;-0.680;2023-09-12T00:57:00;100438;;;25.08;51.52
57250;BME280;43102;52.014;-0.680;2023-09-12T00:58:00;100426;;;25.07;51.76
57250;BME280;43102;52.014;-0.680;2023-09-12T00:59:00;100426;;;25.07;51.76
57250;BME280;43102;52.014;-0.680;2023-09-12T01:00:01;100426;;;25.07;51.76
57250;BME280;43102;52.014;-0.680;2023-09-12T01:01:00;100426;;;25.07;51.76
57250;BME280;43102;52.014;-0.680;2023-09-12T01:02:00;100426;;;25.07;51.76
57250;BME280;43102;52.014;-0.680;2023-09-12T01:03:00;100423;;;24.99;51.96
57250;BME280;43102;52.014;-0.680;2023-09-12T01:04:00;100423;;;24.99;51.96
57250;BME280;43102;52.014;-0.680;2023-09-12T01:05:00;100423;;;24.99;51.96
57250;BME280;43102;52.014;-0.680;2023-09-12T01:06:00;100423;;;24.99;51.96
57250;BME280;43102;52.014;-0.680;2023-09-12T01:07:00;100423;;;24.99;51.96
57250;BME280;43102;52.014;-0.680;2023-09-12T01:08:00;100436;;;24.98;51.73
57250;BME280;43102;52.014;-0.680;2023-09-12T01:09:00;100436;;;24.98;51.73
57250;BME280;43102;52.014;-0.680;2023-09-12T01:10:00;100436;;;24.98;51.73
57250;BME280;43102;52.014;-0.680;2023-09-12T01:11:00;100436;;;24.98;51.73
57250;BME280;43102;52.014;-0.680;2023-09-12T01:12:00;100436;;;24.98;51.73
57250;BME280;43102;52.014;-0.680;2023-09-12T01:13:00;100428;;;24.93;51.82
57250;BME280;43102;52.014;-0.680;2023-09-12T01:14:00;100428;;;24.93;51.82
57250;BME280;43102;52.014;-0.680;2023-09-12T01:15:00;100428;;;24.93;51.82
57250;BME280;43102;52.014;-0.680;2023-09-12T01:16:00;100428;;;24.93;51.82
57250;BME280;43102;52.014;-0.680;2023-09-12T01:17:00;100428;;;24.93;51.82
57250;BME280;43102;52.014;-0.680;2023-09-12T01:18:00;100431;;;24.90;51.91
57250;BME280;43102;52.014;-0.680;2023-09-12T01:19:00;100431;;;24.90;51.91
57250;BME280;43102;52.014;-0.680;2023-09-12T01:20:00;100431;;;24.90;51.91
57250;BME280;43102;52.014;-0.680;2023-09-12T01:22:15;100431;;;24.90;51.91
57250;BME280;43102;52.014;-0.680;2023-09-12T01:24:06;100437;;;24.80;52.14
57250;BME280;43102;52.014;-0.680;2023-09-12T01:25:04;100437;;;24.80;52.14
57250;BME280;43102;52.014;-0.680;2023-09-12T01:26:13;100437;;;24.80;52.14
57250;BME280;43102;52.014;-0.680;2023-09-12T01:28:01;100432;;;24.74;52.42
57250;BME280;43102;52.014;-0.680;2023-09-12T01:29:00;100432;;;24.74;52.42
57250;BME280;43102;52.014;-0.680;2023-09-12T01:30:02;100432;;;24.74;52.42
57250;BME280;43102;52.014;-0.680;2023-09-12T01:31:00;100432;;;24.74;52.42
57250;BME280;43102;52.014;-0.680;2023-09-12T01:32:00;100432;;;24.74;52.42
57250;BME280;43102;52.014;-0.680;2023-09-12T01:33:00;100432;;;24.75;52.34
57250;BME280;43102;52.014;-0.680;2023-09-12T01:34:10;100432;;;24.75;52.34
57250;BME280;43102;52.014;-0.680;2023-09-12T01:35:00;100432;;;24.75;52.34
57250;BME280;43102;52.014;-0.680;2023-09-12T01:36:00;100432;;;24.75;52.34
57250;BME280;43102;52.014;-0.680;2023-09-12T01:37:00;100432;;;24.75;52.34
57250;BME280;43102;52.014;-0.680;2023-09-12T01:38:00;100422;;;24.72;52.31
57250;BME280;43102;52.014;-0.680;2023-09-12T01:39:00;100422;;;24.72;52.31
57250;BME280;43102;52.014;-0.680;2023-09-12T01:40:00;100422;;;24.72;52.31
57250;BME280;43102;52.014;-0.680;2023-09-12T01:41:00;100422;;;24.72;52.31
57250;BME280;43102;52.014;-0.680;2023-09-12T01:42:00;100422;;;24.72;52.31
57250;BME280;43102;52.014;-0.680;2023-09-12T01:43:00;100420;;;24.67;52.36
57250;BME280;43102;52.014;-0.680;2023-09-12T01:44:00;100420;;;24.67;52.36
57250;BME280;43102;52.014;-0.680;2023-09-12T01:45:00;100420;;;24.67;52.36
57250;BME280;43102;52.014;-0.680;2023-09-12T01:46:00;100420;;;24.67;52.36
57250;BME280;43102;52.014;-0.680;2023-09-12T01:47:00;100420;;;24.67;52.36
57250;BME280;43102;52.014;-0.680;2023-09-12T01:48:00;100425;;;24.62;52.41
57250;BME280;43102;52.014;-0.680;2023-09-12T01:49:00;100425;;;24.62;52.41
57250;BME280;43102;52.014;-0.680;2023-09-12T01:50:00;100425;;;24.62;52.41
57250;BME280;43102;52.014;-0.680;2023-09-12T01:51:00;100425;;;24.62;52.41
57250;BME280;43102;52.014;-0.680;2023-09-12T01:52:00;100425;;;24.62;52.41
57250;BME280;43102;52.014;-0.680;2023-09-12T01:53:00;100428;;;24.59;52.42
57250;BME280;43102;52.014;-0.680;2023-09-12T01:54:00;100428;;;24.59;52.42
57250;BME280;43102;52.014;-0.680;2023-09-12T01:55:00;100428;;;24.59;52.42
57250;BME280;43102;52.014;-0.680;2023-09-12T01:56:00;100428;;;24.59;52.42
57250;BME280;43102;52.014;-0.680;2023-09-12T01:57:00;100428;;;24.59;52.42
57250;BME280;43102;52.014;-0.680;2023-09-12T01:58:00;100422;;;24.55;52.60
57250;BME280;43102;52.014;-0.680;2023-09-12T01:59:00;100422;;;24.55;52.60
57250;BME280;43102;52.014;-0.680;2023-09-12T02:00:00;100422;;;24.55;52.60
57250;BME280;43102;52.014;-0.680;2023-09-12T02:01:00;100422;;;24.55;52.60
57250;BME280;43102;52.014;-0.680;2023-09-12T02:02:00;100422;;;24.55;52.60
57250;BME280;43102;52.014;-0.680;2023-09-12T02:03:01;100415;;;24.52;52.59
57250;BME280;43102;52.014;-0.680;2023-09-12T02:04:00;100415;;;24.52;52.59
57250;BME280;43102;52.014;-0.680;2023-09-12T02:05:05;100415;;;24.52;52.59
57250;BME280;43102;52.014;-0.680;2023-09-12T02:06:00;100415;;;24.52;52.59
57250;BME280;43102;52.014;-0.680;2023-09-12T02:07:00;100415;;;24.52;52.59
57250;BME280;43102;52.014;-0.680;2023-09-12T02:08:00;100420;;;24.48;52.60
57250;BME280;43102;52.014;-0.680;2023-09-12T02:09:00;100420;;;24.48;52.60
57250;BME280;43102;52.014;-0.680;2023-09-12T02:10:00;100420;;;24.48;52.60
57250;BME280;43102;52.014;-0.680;2023-09-12T02:11:00;100420;;;24.48;52.60
57250;BME280;43102;52.014;-0.680;2023-09-12T02:12:00;100420;;;24.48;52.60
57250;BME280;43102;52.014;-0.680;2023-09-12T02:13:00;100418;;;24.45;52.68
57250;BME280;43102;52.014;-0.680;2023-09-12T02:14:00;100418;;;24.45;52.68
57250;BME280;43102;52.014;-0.680;2023-09-12T02:15:00;100418;;;24.45;52.68
57250;BME280;43102;52.014;-0.680;2023-09-12T02:16:00;100418;;;24.45;52.68
57250;BME280;43102;52.014;-0.680;2023-09-12T02:17:00;100418;;;24.45;52.68
57250;BME280;43102;52.014;-0.680;2023-09-12T02:18:00;100416;;;24.39;52.72
57250;BME280;43102;52.014;-0.680;2023-09-12T02:19:00;100416;;;24.39;52.72
57250;BME280;43102;52.014;-0.680;2023-09-12T02:20:00;100416;;;24.39;52.72
57250;BME280;43102;52.014;-0.680;2023-09-12T02:21:00;100416;;;24.39;52.72
57250;BME280;43102;52.014;-0.680;2023-09-12T02:22:00;100416;;;24.39;52.72
57250;BME280;43102;52.014;-0.680;2023-09-12T02:23:00;100418;;;24.34;52.71
57250;BME280;43102;52.014;-0.680;2023-09-12T02:24:00;100418;;;24.34;52.71
57250;BME280;43102;52.014;-0.680;2023-09-12T02:25:00;100418;;;24.34;52.71
57250;BME280;43102;52.014;-0.680;2023-09-12T02:26:00;100418;;;24.34;52.71
57250;BME280;43102;52.014;-0.680;2023-09-12T02:27:00;100418;;;24.34;52.71
57250;BME280;43102;52.014;-0.680;2023-09-12T02:28:00;100420;;;24.26;52.89
57250;BME280;43102;52.014;-0.680;2023-09-12T02:29:00;100420;;;24.26;52.89
57250;BME280;43102;52.014;-0.680;2023-09-12T02:30:00;100420;;;24.26;52.89
57250;BME280;43102;52.014;-0.680;2023-09-12T02:31:00;100420;;;24.26;52.89
57250;BME280;43102;52.014;-0.680;2023-09-12T02:32:00;100420;;;24.26;52.89
57250;BME280;43102;52.014;-0.680;2023-09-12T02:33:00;100414;;;24.24;52.93
57250;BME280;43102;52.014;-0.680;2023-09-12T02:34:00;100414;;;24.24;52.93
57250;BME280;43102;52.014;-0.680;2023-09-12T02:35:00;100414;;;24.24;52.93
57250;BME280;43102;52.014;-0.680;2023-09-12T02:36:00;100414;;;24.24;52.93
57250;BME280;43102;52.014;-0.680;2023-09-12T02:37:00;100414;;;24.24;52.93
57250;BME280;43102;52.014;-0.680;2023-09-12T02:38:00;100417;;;24.24;53.01
57250;BME280;43102;52.014;-0.680;2023-09-12T02:39:00;100417;;;24.24;53.01
57250;BME280;43102;52.014;-0.680;2023-09-12T02:40:00;100417;;;24.24;53.01
57250;BME280;43102;52.014;-0.680;2023-09-12T02:41:00;100417;;;24.24;53.01
57250;BME280;43102;52.014;-0.680;2023-09-12T02:42:00;100417;;;24.24;53.01
57250;BME280;43102;52.014;-0.680;2023-09-12T02:43:00;100418;;;24.23;53.07
57250;BME280;43102;52.014;-0.680;2023-09-12T02:44:00;100418;;;24.23;53.07
57250;BME280;43102;52.014;-0.680;2023-09-12T02:45:00;100418;;;24.23;53.07
57250;BME280;43102;52.014;-0.680;2023-09-12T02:46:00;100418;;;24.23;53.07
57250;BME280;43102;52.014;-0.680;2023-09-12T02:47:00;100418;;;24.23;53.07
57250;BME280;43102;52.014;-0.680;2023-09-12T02:48:00;100422;;;24.19;53.16
57250;BME280;43102;52.014;-0.680;2023-09-12T02:49:00;100422;;;24.19;53.16
57250;BME280;43102;52.014;-0.680;2023-09-12T02:50:00;100422;;;24.19;53.16
57250;BME280;43102;52.014;-0.680;2023-09-12T02:51:00;100422;;;24.19;53.16
57250;BME280;43102;52.014;-0.680;2023-09-12T02:52:00;100422;;;24.19;53.16
57250;BME280;43102;52.014;-0.680;2023-09-12T02:53:00;100423;;;24.15;53.20
57250;BME280;43102;52.014;-0.680;2023-09-12T02:54:00;100423;;;24.15;53.20
57250;BME280;43102;52.014;-0.680;2023-09-12T02:55:00;100423;;;24.15;53.20
57250;BME280;43102;52.014;-0.680;2023-09-12T02:56:00;100423;;;24.15;53.20
57250;BME280;43102;52.014;-0.680;2023-09-12T02:57:00;100423;;;24.15;53.20
57250;BME280;43102;52.014;-0.680;2023-09-12T02:58:00;100422;;;24.03;53.70
57250;BME280;43102;52.014;-0.680;2023-09-12T02:59:00;100422;;;24.03;53.70
57250;BME280;43102;52.014;-0.680;2023-09-12T03:00:00;100422;;;24.03;53.70
57250;BME280;43102;52.014;-0.680;2023-09-12T03:01:00;100422;;;24.03;53.70
57250;BME280;43102;52.014;-0.680;2023-09-12T03:02:00;100422;;;24.03;53.70
57250;BME280;43102;52.014;-0.680;2023-09-12T03:03:00;100427;;;24.09;53.40
57250;BME280;43102;52.014;-0.680;2023-09-12T03:04:00;100427;;;24.09;53.40
57250;BME280;43102;52.014;-0.680;2023-09-12T03:05:00;100427;;;24.09;53.40
57250;BME280;43102;52.014;-0.680;2023-09-12T03:06:00;100427;;;24.09;53.40
57250;BME280;43102;52.014;-0.680;2023-09-12T03:07:00;100427;;;24.09;53.40
57250;BME280;43102;52.014;-0.680;2023-09-12T03:08:00;100419;;;23.98;53.39
57250;BME280;43102;52.014;-0.680;2023-09-12T03:09:00;100419;;;23.98;53.39
57250;BME280;43102;52.014;-0.680;2023-09-12T03:10:00;100419;;;23.98;53.39
57250;BME280;43102;52.014;-0.680;2023-09-12T03:11:00;100419;;;23.98;53.39
57250;BME280;43102;52.014;-0.680;2023-09-12T03:12:01;100419;;;23.98;53.39
57250;BME280;43102;52.014;-0.680;2023-09-12T03:13:00;100427;;;23.79;53.77
57250;BME280;43102;52.014;-0.680;2023-09-12T03:14:00;100427;;;23.79;53.77
57250;BME280;43102;52.014;-0.680;2023-09-12T03:15:00;100427;;;23.79;53.77
57250;BME280;43102;52.014;-0.680;2023-09-12T03:16:00;100427;;;23.79;53.77
57250;BME280;43102;52.014;-0.680;2023-09-12T03:17:00;100427;;;23.79;53.77
57250;BME280;43102;52.014;-0.680;2023-09-12T03:18:00;100424;;;23.87;53.48
57250;BME280;43102;52.014;-0.680;2023-09-12T03:19:00;100424;;;23.87;53.48
57250;BME280;43102;52.014;-0.680;2023-09-12T03:20:00;100424;;;23.87;53.48
57250;BME280;43102;52.014;-0.680;2023-09-12T03:21:00;100424;;;23.87;53.48
57250;BME280;43102;52.014;-0.680;2023-09-12T03:22:00;100424;;;23.87;53.48
57250;BME280;43102;52.014;-0.680;2023-09-12T03:23:00;100419;;;23.80;53.66
57250;BME280;43102;52.014;-0.680;2023-09-12T03:24:00;100419;;;23.80;53.66
57250;BME280;43102;52.014;-0.680;2023-09-12T03:25:00;100419;;;23.80;53.66
57250;BME280;43102;52.014;-0.680;2023-09-12T03:26:01;100419;;;23.80;53.66
57250;BME280;43102;52.014;-0.680;2023-09-12T03:27:00;100419;;;23.80;53.66
57250;BME280;43102;52.014;-0.680;2023-09-12T03:28:00;100422;;;23.39;54.90
57250;BME280;43102;52.014;-0.680;2023-09-12T03:29:00;100422;;;23.39;54.90
57250;BME280;43102;52.014;-0.680;2023-09-12T03:30:00;100422;;;23.39;54.90
57250;BME280;43102;52.014;-0.680;2023-09-12T03:31:03;100422;;;23.39;54.90
57250;BME280;43102;52.014;-0.680;2023-09-12T03:32:00;100422;;;23.39;54.90
57250;BME280;43102;52.014;-0.680;2023-09-12T03:33:00;100420;;;23.34;54.97
57250;BME280;43102;52.014;-0.680;2023-09-12T03:34:00;100420;;;23.34;54.97
57250;BME280;43102;52.014;-0.680;2023-09-12T03:35:00;100420;;;23.34;54.97
57250;BME280;43102;52.014;-0.680;2023-09-12T03:36:00;100420;;;23.34;54.97
57250;BME280;43102;52.014;-0.680;2023-09-12T03:37:00;100420;;;23.34;54.97
57250;BME280;43102;52.014;-0.680;2023-09-12T03:38:00;100416;;;23.29;55.03
57250;BME280;43102;52.014;-0.680;2023-09-12T03:39:00;100416;;;23.29;55.03
57250;BME280;43102;52.014;-0.680;2023-09-12T03:40:00;100416;;;23.29;55.03
57250;BME280;43102;52.014;-0.680;2023-09-12T03:41:00;100416;;;23.29;55.03
57250;BME280;43102;52.014;-0.680;2023-09-12T03:42:00;100416;;;23.29;55.03
57250;BME280;43102;52.014;-0.680;2023-09-12T03:43:00;100411;;;23.32;54.91
57250;BME280;43102;52.014;-0.680;2023-09-12T03:44:00;100411;;;23.32;54.91
57250;BME280;43102;52.014;-0.680;2023-09-12T03:45:00;100411;;;23.32;54.91
57250;BME280;43102;52.014;-0.680;2023-09-12T03:46:00;100411;;;23.32;54.91
57250;BME280;43102;52.014;-0.680;2023-09-12T03:47:00;100411;;;23.32;54.91
57250;BME280;43102;52.014;-0.680;2023-09-12T03:48:00;100408;;;23.58;54.30
57250;BME280;43102;52.014;-0.680;2023-09-12T03:49:00;100408;;;23.58;54.30
57250;BME280;43102;52.014;-0.680;2023-09-12T03:50:00;100408;;;23.58;54.30
57250;BME280;43102;52.014;-0.680;2023-09-12T03:51:00;100408;;;23.58;54.30
57250;BME280;43102;52.014;-0.680;2023-09-12T03:52:00;100408;;;23.58;54.30
57250;BME280;43102;52.014;-0.680;2023-09-12T03:53:00;100412;;;23.58;54.28
57250;BME280;43102;52.014;-0.680;2023-09-12T03:54:00;100412;;;23.58;54.28
57250;BME280;43102;52.014;-0.680;2023-09-12T03:55:00;100412;;;23.58;54.28
57250;BME280;43102;52.014;-0.680;2023-09-12T03:56:00;100412;;;23.58;54.28
57250;BME280;43102;52.014;-0.680;2023-09-12T03:57:00;100412;;;23.58;54.28
57250;BME280;43102;52.014;-0.680;2023-09-12T03:58:00;100409;;;23.56;54.34
57250;BME280;43102;52.014;-0.680;2023-09-12T03:59:00;100409;;;23.56;54.34
57250;BME280;43102;52.014;-0.680;2023-09-12T04:00:00;100409;;;23.56;54.34
57250;BME280;43102;52.014;-0.680;2023-09-12T04:01:00;100409;;;23.56;54.34
57250;BME280;43102;52.014;-0.680;2023-09-12T04:02:01;100409;;;23.56;54.34
57250;BME280;43102;52.014;-0.680;2023-09-12T04:03:00;100410;;;23.52;54.43
57250;BME280;43102;52.014;-0.680;2023-09-12T04:04:00;100410;;;23.52;54.43
57250;BME280;43102;52.014;-0.680;2023-09-12T04:05:00;100410;;;23.52;54.43
57250;BME280;43102;52.014;-0.680;2023-09-12T04:06:00;100410;;;23.52;54.43
57250;BME280;43102;52.014;-0.680;2023-09-12T04:07:00;100410;;;23.52;54.43
57250;BME280;43102;52.014;-0.680;2023-09-12T04:08:00;100413;;;23.51;54.39
57250;BME280;43102;52.014;-0.680;2023-09-12T04:09:00;100413;;;23.51;54.39
57250;BME280;43102;52.014;-0.680;2023-09-12T04:10:00;100413;;;23.51;54.39
57250;BME280;43102;52.014;-0.680;2023-09-12T04:11:00;100413;;;23.51;54.39
57250;BME280;43102;52.014;-0.680;2023-09-12T04:12:00;100413;;;23.51;54.39
57250;BME280;43102;52.014;-0.680;2023-09-12T04:13:00;100412;;;23.52;54.40
57250;BME280;43102;52.014;-0.680;2023-09-12T04:14:00;100412;;;23.52;54.40
57250;BME280;43102;52.014;-0.680;2023-09-12T04:15:00;100412;;;23.52;54.40
57250;BME280;43102;52.014;-0.680;2023-09-12T04:16:00;100412;;;23.52;54.40
57250;BME280;43102;52.014;-0.680;2023-09-12T04:17:00;100412;;;23.52;54.40
57250;BME280;43102;52.014;-0.680;2023-09-12T04:18:00;100414;;;23.53;54.27
57250;BME280;43102;52.014;-0.680;2023-09-12T04:19:00;100414;;;23.53;54.27
57250;BME280;43102;52.014;-0.680;2023-09-12T04:20:00;100414;;;23.53;54.27
57250;BME280;43102;52.014;-0.680;2023-09-12T04:21:00;100414;;;23.53;54.27
57250;BME280;43102;52.014;-0.680;2023-09-12T04:22:00;100414;;;23.53;54.27
57250;BME280;43102;52.014;-0.680;2023-09-12T04:23:00;100415;;;23.39;54.60
57250;BME280;43102;52.014;-0.680;2023-09-12T04:24:00;100415;;;23.39;54.60
57250;BME280;43102;52.014;-0.680;2023-09-12T04:25:00;100415;;;23.39;54.60
57250;BME280;43102;52.014;-0.680;2023-09-12T04:26:00;100415;;;23.39;54.60
57250;BME280;43102;52.014;-0.680;2023-09-12T04:27:00;100415;;;23.39;54.60
57250;BME280;43102;52.014;-0.680;2023-09-12T04:28:00;100415;;;23.49;54.52
57250;BME280;43102;52.014;-0.680;2023-09-12T04:29:00;100415;;;23.49;54.52
57250;BME280;43102;52.014;-0.680;2023-09-12T04:30:00;100415;;;23.49;54.52
57250;BME280;43102;52.014;-0.680;2023-09-12T04:31:00;100415;;;23.49;54.52
57250;BME280;43102;52.014;-0.680;2023-09-12T04:32:01;100415;;;23.49;54.52
57250;BME280;43102;52.014;-0.680;2023-09-12T04:33:00;100417;;;23.34;54.88
57250;BME280;43102;52.014;-0.680;2023-09-12T04:34:00;100417;;;23.34;54.88
57250;BME280;43102;52.014;-0.680;2023-09-12T04:35:00;100417;;;23.34;54.88
57250;BME280;43102;52.014;-0.680;2023-09-12T04:36:00;100417;;;23.34;54.88
57250;BME280;43102;52.014;-0.680;2023-09-12T04:37:00;100417;;;23.34;54.88
57250;BME280;43102;52.014;-0.680;2023-09-12T04:38:00;100408;;;23.44;54.60
57250;BME280;43102;52.014;-0.680;2023-09-12T04:39:00;100408;;;23.44;54.60
57250;BME280;43102;52.014;-0.680;2023-09-12T04:40:00;100408;;;23.44;54.60
57250;BME280;43102;52.014;-0.680;2023-09-12T04:41:01;100408;;;23.44;54.60
57250;BME280;43102;52.014;-0.680;2023-09-12T04:42:00;100408;;;23.44;54.60
57250;BME280;43102;52.014;-0.680;2023-09-12T04:43:00;100405;;;23.48;54.53
57250;BME280;43102;52.014;-0.680;2023-09-12T04:44:00;100405;;;23.48;54.53
57250;BME280;43102;52.014;-0.680;2023-09-12T04:45:00;100405;;;23.48;54.53
57250;BME280;43102;52.014;-0.680;2023-09-12T04:46:00;100405;;;23.48;54.53
57250;BME280;43102;52.014;-0.680;2023-09-12T04:47:00;100405;;;23.48;54.53
57250;BME280;43102;52.014;-0.680;2023-09-12T04:48:00;100401;;;23.33;54.97
57250;BME280;43102;52.014;-0.680;2023-09-12T04:49:00;100401;;;23.33;54.97
57250;BME280;43102;52.014;-0.680;2023-09-12T04:50:00;100401;;;23.33;54.97
57250;BME280;43102;52.014;-0.680;2023-09-12T04:51:00;100401;;;23.33;54.97
57250;BME280;43102;52.014;-0.680;2023-09-12T04:52:00;100401;;;23.33;54.97
57250;BME280;43102;52.014;-0.680;2023-09-12T04:53:00;100401;;;23.25;55.38
57250;BME280;43102;52.014;-0.680;2023-09-12T04:54:00;100401;;;23.25;55.38
57250;BME280;43102;52.014;-0.680;2023-09-12T04:55:00;100401;;;23.25;55.38
57250;BME280;43102;52.014;-0.680;2023-09-12T04:56:01;100401;;;23.25;55.38
57250;BME280;43102;52.014;-0.680;2023-09-12T04:57:00;100401;;;23.25;55.38
57250;BME280;43102;52.014;-0.680;2023-09-12T04:58:00;100399;;;23.39;55.12
57250;BME280;43102;52.014;-0.680;2023-09-12T04:59:00;100399;;;23.39;55.12
57250;BME280;43102;52.014;-0.680;2023-09-12T05:00:00;100399;;;23.39;55.12
57250;BME280;43102;52.014;-0.680;2023-09-12T05:01:00;100399;;;23.39;55.12
57250;BME280;43102;52.014;-0.680;2023-09-12T05:02:00;100399;;;23.39;55.12
57250;BME280;43102;52.014;-0.680;2023-09-12T05:03:00;100394;;;23.41;54.90
57250;BME280;43102;52.014;-0.680;2023-09-12T05:04:00;100394;;;23.41;54.90
57250;BME280;43102;52.014;-0.680;2023-09-12T05:05:00;100394;;;23.41;54.90
57250;BME280;43102;52.014;-0.680;2023-09-12T05:06:00;100394;;;23.41;54.90
57250;BME280;43102;52.014;-0.680;2023-09-12T05:07:00;100394;;;23.41;54.90
57250;BME280;43102;52.014;-0.680;2023-09-12T05:08:00;100399;;;23.38;54.96
57250;BME280;43102;52.014;-0.680;2023-09-12T05:09:00;100399;;;23.38;54.96
57250;BME280;43102;52.014;-0.680;2023-09-12T05:10:00;100399;;;23.38;54.96
57250;BME280;43102;52.014;-0.680;2023-09-12T05:11:00;100399;;;23.38;54.96
57250;BME280;43102;52.014;-0.680;2023-09-12T05:12:00;100399;;;23.38;54.96
57250;BME280;43102;52.014;-0.680;2023-09-12T05:13:00;100403;;;23.36;55.04
57250;BME280;43102;52.014;-0.680;2023-09-12T05:14:00;100403;;;23.36;55.04
57250;BME280;43102;52.014;-0.680;2023-09-12T05:15:00;100403;;;23.36;55.04
57250;BME280;43102;52.014;-0.680;2023-09-12T05:16:00;100403;;;23.36;55.04
57250;BME280;43102;52.014;-0.680;2023-09-12T05:17:00;100403;;;23.36;55.04
57250;BME280;43102;52.014;-0.680;2023-09-12T05:18:00;100405;;;23.34;55.13
57250;BME280;43102;52.014;-0.680;2023-09-12T05:19:00;100405;;;23.34;55.13
57250;BME280;43102;52.014;-0.680;2023-09-12T05:20:00;100405;;;23.34;55.13
57250;BME280;43102;52.014;-0.680;2023-09-12T05:21:00;100405;;;23.34;55.13
57250;BME280;43102;52.014;-0.680;2023-09-12T05:22:00;100405;;;23.34;55.13
57250;BME280;43102;52.014;-0.680;2023-09-12T05:23:00;100403;;;23.32;55.09
57250;BME280;43102;52.014;-0.680;2023-09-12T05:24:00;100403;;;23.32;55.09